Ann Arbor, MI

11:52 AM EDT on May 05, 2015 (GMT -0400)
Livingston County | | Change Station
CLOSE
Current Station
Airport
Location: Howell,
Elevation: 961 ft
Nearby Weather Stations

Elev 961 ft 42.63 °N, 83.98 °W | Updated 17 minutes ago

Rain
Rain
47 °F
Feels Like 47 °F
N
6
Wind Variable Wind from NNE

Today
High -- | Low -- °F
--% Chance of Precip.
Yesterday
High -- | Low -- °F
Precip. -- in
6:25 AM 8:38 PM
Full, 98% visible
Pressure 30.32 in
Visibility 4.0 miles
Clouds Overcast 2600 ft
Dew Point 45 °F
Humidity 92%
Rainfall 0.00 in
Snow Depth Not available.
UV 3 out of 12
Pollen 8.50 out of 12
Air Quality Not available.
Flu Activity Regional
METAR KOZW 051535Z AUTO 02005KT 4SM UP OVC026 08/07 A3032 RMK AO2 T00830071

More Conditions Fewer Conditions

Pressure 30.32 in
Visibility 4.0 miles
Clouds Overcast 2600 ft
Dew Point 45 °F
Humidity 92%
Rainfall 0.00 in
Snow Depth Not available.
UV 3 out of 12
Pollen 8.50 out of 12
Air Quality Not available.
Flu Activity Regional
METAR KOZW 051535Z AUTO 02005KT 4SM UP OVC026 08/07 A3032 RMK AO2 T00830071

More Conditions Fewer Conditions

10-Day Weather Forecast

Almanac

Astronomy

May. 05, 2015 Rise Set
Actual Time
Civil Twilight
Nautical Twilight
Astronomical Twilight
Moon
Length of Visible Light
Length of Day
Tomorrow will be .
, % of the Moon is Illuminated

Today's Extremes

State Highs State Lows

Community

WunderPhotos

Upload Photos

1,818,922 photos uploaded!

WunderBlogs® & News

Nearby

Air Quality

  Air Quality AQ Index Pollutant
Not available.

Snow Depth

Station Depth Elevation

Earthquake Activity

City Distance Mag. Time & Date
Minimum magnitude displayed is 2.5.

Coastal Water Temperatures

Place Temperature

Stations

Nearby Weather Stations

Station Location Temp. Windchill Dew Point Humidity Wind Precip. Elev Updated Type